Standish, Maine
Current Conditions -  °F | °C
As of 5:51 PM on Sunday 21 Dec 2014 (Local Time) from KPWM Reporting Station
Scattered Clouds Scattered Clouds  
Wind Chill: 25°   Ceiling: Unl
Heat Index: 30°   Visibility: 10mi
Dew Point: 23°   Wind: 5mph
Humidity: 75%   Direction: 10°N
Pressure: 30.35"   Gusts: NA
Location:  43.74°N, 70.55°W
Report Text: KPWM 212251Z 01004KT 10SM SCT200 M01/M05 A3035 RMK AO2 SLP279 T10111050
Loading
Personal Weather Stations






























Interactive Weather Map New forecast layout! Learn more

10-Day Weather Forecast

Advertisements
Track Severe Weather on mobile